»·PEaware :: DAL0797 KATL-KMCO

DAL0797 :: KATL-KMCO

FLIGHT INFORMATION

Flight Status: Arrived
Operator:
Delta Air Lines
More flights by this operator :: More flights under this callsign
Pilot: Manny R. (10936)
Aircraft: BOEING 757-200
(B752)
More flights by this aircraft type
Origin: KATL Hartsfield-Jackson Atlanta
United States
Destination: KMCO Orlando Intl
United States
More flights between these airports :: More routes between these airports
Route: SMLTZ2 WALET YUESS OTK PIGLT6
File this flight plan on PilotEdge
Remarks: RMK / SIMBRIEF
Altitude:
(Current/Filed)
37,000ft
Speed:
(Current/Filed)
452kts
Departed: 14-Apr-20 08:46 PM
Arrived: 14-Apr-20 09:44 PM
Distance/Time
Traveled:
352nm/0:58
Distance/Time
To Go:
Arrived

Flight Plot

Page will automatically refresh every two minutes.

Flight plan parsing failed; only flown route is shown


Map Options




Map Legend


Flown Route
Filed Route
Departure Airport
Arrival Airport
Navaid (VOR, NDB)
Fix

Horizontal Profiles

Position Reports

Time Latitude Longitude Heading Altitude Ground
Speed
14-Apr-20 20:34 33.640563 -84.438386 0 1020ft 0kts
14-Apr-20 20:35 33.640342 -84.437882 342 1019ft 2kts
14-Apr-20 20:36 33.640185 -84.437861 0 1019ft 0kts
14-Apr-20 20:37 33.640185 -84.437861 0 1019ft 0kts
14-Apr-20 20:38 33.641361 -84.437872 359 1020ft 16kts
14-Apr-20 20:39 33.645323 -84.436829 68 1023ft 14kts
14-Apr-20 20:40 33.645424 -84.430948 89 1011ft 19kts
14-Apr-20 20:41 33.645436 -84.423988 90 991ft 24kts
14-Apr-20 20:42 33.645426 -84.415211 89 976ft 25kts
14-Apr-20 20:43 33.645432 -84.408489 89 988ft 21kts
14-Apr-20 20:44 33.646775 -84.406103 277 994ft 8kts
14-Apr-20 20:45 33.646791 -84.422803 270 986ft 135kts
14-Apr-20 20:46 33.651842 -84.482717 282 2875ft 164kts
14-Apr-20 20:47 33.663709 -84.550126 285 3629ft 235kts
14-Apr-20 20:48 33.649633 -84.625206 246 6255ft 244kts
14-Apr-20 20:49 33.601194 -84.680209 217 8862ft 253kts
14-Apr-20 20:50 33.528906 -84.688350 179 11087ft 284kts
14-Apr-20 20:51 33.450514 -84.673670 180 13347ft 287kts
14-Apr-20 20:52 33.373948 -84.615309 141 13748ft 385kts
14-Apr-20 20:53 33.297290 -84.523047 143 15622ft 396kts
14-Apr-20 20:54 33.217330 -84.428811 144 17358ft 409kts
14-Apr-20 20:55 33.134866 -84.332004 145 19020ft 421kts
14-Apr-20 20:56 33.050996 -84.233833 145 20590ft 430kts
14-Apr-20 20:57 32.965148 -84.160560 169 21945ft 406kts
14-Apr-20 20:58 32.852123 -84.112363 171 23401ft 414kts
14-Apr-20 20:59 32.743444 -84.067563 172 24698ft 424kts
14-Apr-20 21:00 32.655288 -84.031405 172 25662ft 431kts
14-Apr-20 21:01 32.541045 -83.984672 172 26829ft 441kts
14-Apr-20 21:02 32.423883 -83.936878 173 27942ft 451kts
14-Apr-20 21:03 32.307055 -83.882775 168 28948ft 469kts
14-Apr-20 21:04 32.187054 -83.819868 168 29940ft 478kts
14-Apr-20 21:05 32.064372 -83.755949 168 30903ft 486kts
14-Apr-20 21:06 31.939850 -83.691258 168 32034ft 490kts
14-Apr-20 21:07 31.827469 -83.633061 169 33267ft 490kts
14-Apr-20 21:08 31.705250 -83.569940 169 34701ft 488kts
14-Apr-20 21:09 31.580967 -83.524793 180 36027ft 464kts
14-Apr-20 21:10 31.459602 -83.488786 179 37004ft 465kts
14-Apr-20 21:11 31.329982 -83.448818 179 37032ft 466kts
14-Apr-20 21:12 31.206827 -83.410762 179 37031ft 466kts
14-Apr-20 21:13 31.084279 -83.372975 179 37032ft 466kts
14-Apr-20 21:14 30.964253 -83.336105 178 37007ft 466kts
14-Apr-20 21:15 30.842417 -83.298743 176 37012ft 468kts
14-Apr-20 21:16 30.741337 -83.240005 148 37024ft 510kts
14-Apr-20 21:17 30.638335 -83.132501 147 37016ft 511kts
14-Apr-20 21:18 30.537116 -83.028105 147 37019ft 512kts
14-Apr-20 21:19 30.427442 -82.915580 147 37019ft 514kts
14-Apr-20 21:20 30.320986 -82.806685 146 37021ft 516kts
14-Apr-20 21:21 30.213034 -82.696561 146 37023ft 515kts
14-Apr-20 21:22 30.110393 -82.592200 146 37026ft 516kts
14-Apr-20 21:23 29.999035 -82.480987 152 37034ft 509kts
14-Apr-20 21:24 29.876220 -82.420029 171 37052ft 483kts
14-Apr-20 21:25 29.762336 -82.378120 172 37064ft 482kts
14-Apr-20 21:26 29.637875 -82.333179 172 37048ft 481kts
14-Apr-20 21:27 29.517743 -82.290018 172 37050ft 483kts
14-Apr-20 21:28 29.378660 -82.240176 172 37054ft 482kts
14-Apr-20 21:29 29.257140 -82.196688 173 36355ft 452kts
14-Apr-20 21:30 29.139627 -82.141411 161 33925ft 469kts
14-Apr-20 21:31 29.026151 -82.071263 159 31783ft 468kts
14-Apr-20 21:32 28.927584 -81.979563 137 29423ft 486kts
14-Apr-20 21:33 28.873537 -81.858654 102 26396ft 475kts
14-Apr-20 21:34 28.844041 -81.709335 112 22671ft 423kts
14-Apr-20 21:35 28.805231 -81.591601 114 19196ft 379kts
14-Apr-20 21:36 28.768691 -81.484593 114 15723ft 350kts
14-Apr-20 21:37 28.735228 -81.387063 114 12245ft 333kts
14-Apr-20 21:38 28.691453 -81.301008 150 8298ft 305kts
14-Apr-20 21:39 28.613169 -81.285337 177 4412ft 299kts
14-Apr-20 21:40 28.535749 -81.283565 178 1923ft 242kts
14-Apr-20 21:41 28.482201 -81.283006 177 894ft 153kts
14-Apr-20 21:42 28.440951 -81.282516 178 121ft 144kts
14-Apr-20 21:43 28.423533 -81.282526 201 107ft 12kts
14-Apr-20 21:44 28.423660 -81.283636 359 107ft 0kts

Navigation Log

Ident Type
Flight plan parsing failed, navigation log unavailable